sensor_id;sensor_type;location;lat;lon;timestamp;pressure;altitude;pressure_sealevel;temperature;humidity
48035;BME280;33812;46.480;6.834;2023-03-25T00:00:15;93657.66;;;21.48;39.36
48035;BME280;33812;46.480;6.834;2023-03-25T00:04:18;93645.03;;;21.47;39.37
48035;BME280;33812;46.480;6.834;2023-03-25T00:08:21;93658.53;;;21.45;39.12
48035;BME280;33812;46.480;6.834;2023-03-25T00:12:24;93645.91;;;21.44;39.40
48035;BME280;33812;46.480;6.834;2023-03-25T00:16:27;93599.25;;;21.46;39.04
48035;BME280;33812;46.480;6.834;2023-03-25T00:20:29;93615.84;;;21.46;38.71
48035;BME280;33812;46.480;6.834;2023-03-25T00:24:33;93623.81;;;21.44;38.81
48035;BME280;33812;46.480;6.834;2023-03-25T00:28:36;93612.75;;;21.44;38.82
48035;BME280;33812;46.480;6.834;2023-03-25T00:32:38;93618.28;;;21.44;38.42
48035;BME280;33812;46.480;6.834;2023-03-25T00:36:40;93621.47;;;21.43;38.78
48035;BME280;33812;46.480;6.834;2023-03-25T00:40:45;93624.69;;;21.41;38.89
48035;BME280;33812;46.480;6.834;2023-03-25T00:44:48;93627.81;;;21.43;38.40
48035;BME280;33812;46.480;6.834;2023-03-25T00:48:49;93629.34;;;21.44;38.60
48035;BME280;33812;46.480;6.834;2023-03-25T00:52:52;93627.81;;;21.43;38.56
48035;BME280;33812;46.480;6.834;2023-03-25T00:56:55;93630.22;;;21.41;38.56
48035;BME280;33812;46.480;6.834;2023-03-25T01:00:57;93635.75;;;21.41;39.14
48035;BME280;33812;46.480;6.834;2023-03-25T01:05:00;93631.00;;;21.42;39.22
48035;BME280;33812;46.480;6.834;2023-03-25T01:09:04;93608.13;;;21.41;39.29
48035;BME280;33812;46.480;6.834;2023-03-25T01:13:08;93613.63;;;21.41;39.58
48035;BME280;33812;46.480;6.834;2023-03-25T01:17:10;93625.91;;;21.40;39.63
48035;BME280;33812;46.480;6.834;2023-03-25T01:21:12;93603.38;;;21.42;39.67
48035;BME280;33812;46.480;6.834;2023-03-25T01:25:14;93589.09;;;21.43;39.58
48035;BME280;33812;46.480;6.834;2023-03-25T01:29:20;93566.97;;;21.43;39.42
48035;BME280;33812;46.480;6.834;2023-03-25T01:33:22;93570.94;;;21.42;39.52
48035;BME280;33812;46.480;6.834;2023-03-25T01:37:25;93574.94;;;21.41;39.56
48035;BME280;33812;46.480;6.834;2023-03-25T01:41:28;93585.22;;;21.41;39.67
48035;BME280;33812;46.480;6.834;2023-03-25T01:45:36;93580.56;;;21.37;39.61
48035;BME280;33812;46.480;6.834;2023-03-25T01:49:40;93574.94;;;21.41;39.51
48035;BME280;33812;46.480;6.834;2023-03-25T01:53:44;93608.13;;;21.41;39.65
48035;BME280;33812;46.480;6.834;2023-03-25T01:57:48;93623.13;;;21.40;39.75
48035;BME280;33812;46.480;6.834;2023-03-25T02:01:57;93606.53;;;21.40;39.70
48035;BME280;33812;46.480;6.834;2023-03-25T02:06:03;93586.00;;;21.41;39.78
48035;BME280;33812;46.480;6.834;2023-03-25T02:10:09;93584.75;;;21.42;39.78
48035;BME280;33812;46.480;6.834;2023-03-25T02:14:14;93607.78;;;21.39;39.90
48035;BME280;33812;46.480;6.834;2023-03-25T02:18:27;93598.69;;;21.38;39.87
48035;BME280;33812;46.480;6.834;2023-03-25T02:27:13;93572.63;;;21.40;39.92
48035;BME280;33812;46.480;6.834;2023-03-25T02:35:50;93556.78;;;21.40;39.87
48035;BME280;33812;46.480;6.834;2023-03-25T02:39:59;93552.03;;;21.41;39.97
48035;BME280;33812;46.480;6.834;2023-03-25T02:44:11;93556.38;;;21.42;39.67
48035;BME280;33812;46.480;6.834;2023-03-25T02:48:18;93562.31;;;21.40;39.71
48035;BME280;33812;46.480;6.834;2023-03-25T02:52:24;93583.22;;;21.41;39.15
48035;BME280;33812;46.480;6.834;2023-03-25T02:56:30;93585.31;;;21.37;39.31
48035;BME280;33812;46.480;6.834;2023-03-25T03:00:33;93586.00;;;21.41;38.71
48035;BME280;33812;46.480;6.834;2023-03-25T03:04:44;93580.13;;;21.39;38.70
48035;BME280;33812;46.480;6.834;2023-03-25T03:08:59;93576.59;;;21.38;38.48
48035;BME280;33812;46.480;6.834;2023-03-25T03:13:15;93584.56;;;21.36;38.48
48035;BME280;33812;46.480;6.834;2023-03-25T03:17:24;93575.50;;;21.36;38.67
48035;BME280;33812;46.480;6.834;2023-03-25T03:21:33;93579.78;;;21.37;38.55
48035;BME280;33812;46.480;6.834;2023-03-25T03:25:45;93571.06;;;21.38;37.89
48035;BME280;33812;46.480;6.834;2023-03-25T03:29:54;93565.53;;;21.38;37.80
48035;BME280;33812;46.480;6.834;2023-03-25T03:34:02;93547.84;;;21.36;38.15
48035;BME280;33812;46.480;6.834;2023-03-25T03:38:08;93548.63;;;21.36;37.72
48035;BME280;33812;46.480;6.834;2023-03-25T03:42:15;93557.34;;;21.35;37.57
48035;BME280;33812;46.480;6.834;2023-03-25T03:46:23;93560.91;;;21.35;37.40
48035;BME280;33812;46.480;6.834;2023-03-25T03:50:30;93553.03;;;21.34;37.34
48035;BME280;33812;46.480;6.834;2023-03-25T03:54:37;93553.50;;;21.32;36.59
48035;BME280;33812;46.480;6.834;2023-03-25T03:58:42;93551.06;;;21.34;36.72
48035;BME280;33812;46.480;6.834;2023-03-25T04:02:48;93557.03;;;21.33;36.55
48035;BME280;33812;46.480;6.834;2023-03-25T04:06:56;93558.69;;;21.30;36.24
48035;BME280;33812;46.480;6.834;2023-03-25T04:11:03;93570.53;;;21.31;36.67
48035;BME280;33812;46.480;6.834;2023-03-25T04:15:08;93561.00;;;21.32;36.71
48035;BME280;33812;46.480;6.834;2023-03-25T04:19:12;93556.72;;;21.31;36.63
48035;BME280;33812;46.480;6.834;2023-03-25T04:23:17;93583.13;;;21.32;36.70
48035;BME280;33812;46.480;6.834;2023-03-25T04:27:20;93584.78;;;21.29;35.81
48035;BME280;33812;46.480;6.834;2023-03-25T04:31:24;93576.50;;;21.29;36.54
48035;BME280;33812;46.480;6.834;2023-03-25T04:35:31;93586.78;;;21.29;36.27
48035;BME280;33812;46.480;6.834;2023-03-25T04:39:33;93580.91;;;21.26;36.65
48035;BME280;33812;46.480;6.834;2023-03-25T04:43:35;93580.13;;;21.26;36.70
48035;BME280;33812;46.480;6.834;2023-03-25T04:47:38;93580.91;;;21.26;36.62
48035;BME280;33812;46.480;6.834;2023-03-25T04:51:45;93586.44;;;21.26;36.52
48035;BME280;33812;46.480;6.834;2023-03-25T04:55:48;93586.44;;;21.26;36.76
48035;BME280;33812;46.480;6.834;2023-03-25T04:59:50;93586.44;;;21.26;36.76
48035;BME280;33812;46.480;6.834;2023-03-25T05:03:52;93591.97;;;21.26;36.76
48035;BME280;33812;46.480;6.834;2023-03-25T05:07:58;93603.47;;;21.25;36.92
48035;BME280;33812;46.480;6.834;2023-03-25T05:12:01;93603.91;;;21.23;36.93
48035;BME280;33812;46.480;6.834;2023-03-25T05:16:04;93608.22;;;21.24;37.01
48035;BME280;33812;46.480;6.834;2023-03-25T05:20:06;93617.28;;;21.25;36.87
48035;BME280;33812;46.480;6.834;2023-03-25T05:24:12;93629.13;;;21.25;36.57
48035;BME280;33812;46.480;6.834;2023-03-25T05:28:14;93620.84;;;21.25;36.43
48035;BME280;33812;46.480;6.834;2023-03-25T05:32:17;93626.81;;;21.24;36.50
48035;BME280;33812;46.480;6.834;2023-03-25T05:36:19;93622.03;;;21.24;35.99
48035;BME280;33812;46.480;6.834;2023-03-25T05:40:31;93628.78;;;21.23;35.79
48035;BME280;33812;46.480;6.834;2023-03-25T05:44:34;93626.81;;;21.24;35.51
48035;BME280;33812;46.480;6.834;2023-03-25T05:48:35;93614.97;;;21.23;35.17
48035;BME280;33812;46.480;6.834;2023-03-25T05:52:37;93608.22;;;21.24;35.20
48035;BME280;33812;46.480;6.834;2023-03-25T05:56:42;93602.78;;;21.21;34.71
48035;BME280;33812;46.480;6.834;2023-03-25T06:00:44;93606.34;;;21.21;34.24
48035;BME280;33812;46.480;6.834;2023-03-25T06:04:47;93600.94;;;21.18;34.14
48035;BME280;33812;46.480;6.834;2023-03-25T06:08:50;93611.22;;;21.17;33.82
48035;BME280;33812;46.480;6.834;2023-03-25T06:12:53;93616.75;;;21.17;34.05
48035;BME280;33812;46.480;6.834;2023-03-25T06:16:55;93608.88;;;21.16;34.07
48035;BME280;33812;46.480;6.834;2023-03-25T06:20:58;93624.72;;;21.15;33.82
48035;BME280;33812;46.480;6.834;2023-03-25T06:24:59;93627.91;;;21.13;34.29
48035;BME280;33812;46.480;6.834;2023-03-25T06:29:04;93619.19;;;21.15;33.92
48035;BME280;33812;46.480;6.834;2023-03-25T06:33:07;93619.94;;;21.16;34.67
48035;BME280;33812;46.480;6.834;2023-03-25T06:37:11;93626.25;;;21.16;34.88
48035;BME280;33812;46.480;6.834;2023-03-25T06:41:13;93620.03;;;21.12;35.17
48035;BME280;33812;46.480;6.834;2023-03-25T06:45:16;93616.84;;;21.00;35.70
48035;BME280;33812;46.480;6.834;2023-03-25T06:49:18;93618.50;;;21.11;36.11
48035;BME280;33812;46.480;6.834;2023-03-25T06:53:20;93599.94;;;21.11;35.96
48035;BME280;33812;46.480;6.834;2023-03-25T06:57:22;93596.63;;;21.17;36.43
48035;BME280;33812;46.480;6.834;2023-03-25T07:01:27;93587.88;;;21.18;36.25
48035;BME280;33812;46.480;6.834;2023-03-25T07:05:30;93588.34;;;21.17;36.70
48035;BME280;33812;46.480;6.834;2023-03-25T07:09:32;93585.56;;;21.17;36.84
48035;BME280;33812;46.480;6.834;2023-03-25T07:13:34;93607.69;;;21.17;36.68
48035;BME280;33812;46.480;6.834;2023-03-25T07:17:39;93604.91;;;21.17;36.82
48035;BME280;33812;46.480;6.834;2023-03-25T07:21:42;93613.09;;;21.20;36.68
48035;BME280;33812;46.480;6.834;2023-03-25T07:25:44;93614.63;;;21.21;36.58
48035;BME280;33812;46.480;6.834;2023-03-25T07:29:45;93606.34;;;21.21;36.60
48035;BME280;33812;46.480;6.834;2023-03-25T07:33:49;93599.28;;;21.20;36.92
48035;BME280;33812;46.480;6.834;2023-03-25T07:37:51;93611.88;;;21.21;36.68
48035;BME280;33812;46.480;6.834;2023-03-25T07:41:53;93607.13;;;21.22;37.08
48035;BME280;33812;46.480;6.834;2023-03-25T07:45:55;93586.66;;;21.19;37.04
48035;BME280;33812;46.480;6.834;2023-03-25T07:49:58;93593.75;;;21.20;36.88
48035;BME280;33812;46.480;6.834;2023-03-25T07:54:00;93589.75;;;21.21;37.06
48035;BME280;33812;46.480;6.834;2023-03-25T07:58:02;93592.06;;;21.23;37.04
48035;BME280;33812;46.480;6.834;2023-03-25T08:02:05;93582.69;;;21.20;37.43
48035;BME280;33812;46.480;6.834;2023-03-25T08:06:08;93581.03;;;21.23;37.25
48035;BME280;33812;46.480;6.834;2023-03-25T08:10:10;93594.09;;;21.22;37.27
48035;BME280;33812;46.480;6.834;2023-03-25T08:14:14;93620.16;;;21.21;37.29
48035;BME280;33812;46.480;6.834;2023-03-25T08:18:16;93604.38;;;21.22;37.75
48035;BME280;33812;46.480;6.834;2023-03-25T08:22:20;93619.72;;;21.23;36.96
48035;BME280;33812;46.480;6.834;2023-03-25T08:26:22;93600.72;;;21.25;36.48
48035;BME280;33812;46.480;6.834;2023-03-25T08:30:24;93587.88;;;21.18;34.71
48035;BME280;33812;46.480;6.834;2023-03-25T08:34:26;93591.88;;;21.17;34.62
48035;BME280;33812;46.480;6.834;2023-03-25T08:38:32;93589.53;;;21.16;34.95
48035;BME280;33812;46.480;6.834;2023-03-25T08:42:34;93601.13;;;21.10;33.77
48035;BME280;33812;46.480;6.834;2023-03-25T08:46:36;93594.97;;;21.06;32.72
48035;BME280;33812;46.480;6.834;2023-03-25T08:50:38;93591.53;;;21.02;32.36
48035;BME280;33812;46.480;6.834;2023-03-25T08:54:41;93597.84;;;21.02;32.50
48035;BME280;33812;46.480;6.834;2023-03-25T08:58:43;93596.28;;;21.01;32.16
48035;BME280;33812;46.480;6.834;2023-03-25T09:02:45;93609.00;;;20.99;32.59
48035;BME280;33812;46.480;6.834;2023-03-25T09:06:47;93620.16;;;20.95;31.78
48035;BME280;33812;46.480;6.834;2023-03-25T09:10:53;93636.81;;;20.92;31.44
48035;BME280;33812;46.480;6.834;2023-03-25T09:14:55;93639.03;;;20.97;32.10
48035;BME280;33812;46.480;6.834;2023-03-25T09:18:57;93629.66;;;20.94;32.01
48035;BME280;33812;46.480;6.834;2023-03-25T09:22:59;93626.34;;;20.99;32.10
48035;BME280;33812;46.480;6.834;2023-03-25T09:27:07;93636.28;;;20.97;31.73
48035;BME280;33812;46.480;6.834;2023-03-25T09:31:11;93640.16;;;20.99;32.09
48035;BME280;33812;46.480;6.834;2023-03-25T09:35:13;93644.47;;;21.00;31.94
48035;BME280;33812;46.480;6.834;2023-03-25T09:39:16;93648.47;;;20.99;31.75
48035;BME280;33812;46.480;6.834;2023-03-25T09:43:42;93639.50;;;20.95;31.95
48035;BME280;33812;46.480;6.834;2023-03-25T09:47:55;93624.44;;;20.96;31.93
48035;BME280;33812;46.480;6.834;2023-03-25T09:52:00;93625.31;;;20.93;31.88
48035;BME280;33812;46.480;6.834;2023-03-25T09:56:03;93638.78;;;20.91;32.15
48035;BME280;33812;46.480;6.834;2023-03-25T10:00:16;93638.78;;;20.91;31.76
48035;BME280;33812;46.480;6.834;2023-03-25T10:04:39;93630.84;;;20.93;31.98
48035;BME280;33812;46.480;6.834;2023-03-25T10:08:59;93649.00;;;20.94;32.09
48035;BME280;33812;46.480;6.834;2023-03-25T10:13:13;93637.94;;;20.94;31.75
48035;BME280;33812;46.480;6.834;2023-03-25T10:17:24;93629.97;;;20.96;32.11
48035;BME280;33812;46.480;6.834;2023-03-25T10:21:36;93640.91;;;21.00;32.35
48035;BME280;33812;46.480;6.834;2023-03-25T10:25:44;93628.34;;;20.99;31.57
48035;BME280;33812;46.480;6.834;2023-03-25T10:29:52;93659.94;;;20.98;32.39
48035;BME280;33812;46.480;6.834;2023-03-25T10:34:00;93655.97;;;20.99;32.08
48035;BME280;33812;46.480;6.834;2023-03-25T10:38:06;93650.09;;;20.97;31.75
48035;BME280;33812;46.480;6.834;2023-03-25T10:42:18;93653.66;;;20.97;31.49
48035;BME280;33812;46.480;6.834;2023-03-25T10:46:27;93651.31;;;20.96;32.00
48035;BME280;33812;46.480;6.834;2023-03-25T10:50:31;93649.00;;;20.94;31.50
48035;BME280;33812;46.480;6.834;2023-03-25T10:54:36;93637.59;;;20.92;31.39
48035;BME280;33812;46.480;6.834;2023-03-25T10:58:43;93636.91;;;20.88;31.33
48035;BME280;33812;46.480;6.834;2023-03-25T11:02:46;93638.56;;;20.85;30.98
48035;BME280;33812;46.480;6.834;2023-03-25T11:06:53;93644.19;;;20.82;30.75
48035;BME280;33812;46.480;6.834;2023-03-25T11:10:57;93660.31;;;20.83;30.93
48035;BME280;33812;46.480;6.834;2023-03-25T11:15:00;93660.44;;;20.80;30.70
48035;BME280;33812;46.480;6.834;2023-03-25T11:19:03;93672.91;;;20.84;31.28
48035;BME280;33812;46.480;6.834;2023-03-25T11:23:14;93681.44;;;20.90;31.11
48035;BME280;33812;46.480;6.834;2023-03-25T11:27:21;93669.81;;;20.82;30.91
48035;BME280;33812;46.480;6.834;2023-03-25T11:31:25;93684.16;;;20.77;30.59
48035;BME280;33812;46.480;6.834;2023-03-25T11:35:29;93708.91;;;20.68;30.64
48035;BME280;33812;46.480;6.834;2023-03-25T11:39:34;93724.25;;;20.69;31.10
48035;BME280;33812;46.480;6.834;2023-03-25T11:43:39;93707.81;;;20.78;31.23
48035;BME280;33812;46.480;6.834;2023-03-25T11:47:41;93712.28;;;20.88;31.53
48035;BME280;33812;46.480;6.834;2023-03-25T11:51:43;93715.38;;;20.90;32.10
48035;BME280;33812;46.480;6.834;2023-03-25T11:55:49;93727.97;;;20.92;33.71
48035;BME280;33812;46.480;6.834;2023-03-25T12:00:00;93719.59;;;20.95;33.84
48035;BME280;33812;46.480;6.834;2023-03-25T12:04:13;93719.06;;;21.00;34.25
48035;BME280;33812;46.480;6.834;2023-03-25T12:08:16;93711.91;;;21.03;34.29
48035;BME280;33812;46.480;6.834;2023-03-25T12:12:39;93711.78;;;21.07;34.33
48035;BME280;33812;46.480;6.834;2023-03-25T12:16:47;93705.38;;;21.10;34.23
48035;BME280;33812;46.480;6.834;2023-03-25T12:20:58;93708.16;;;21.10;34.62
48035;BME280;33812;46.480;6.834;2023-03-25T12:25:20;93709.34;;;21.09;34.62
48035;BME280;33812;46.480;6.834;2023-03-25T12:29:39;93707.81;;;21.08;34.29
48035;BME280;33812;46.480;6.834;2023-03-25T12:33:55;93700.31;;;21.08;34.75
48035;BME280;33812;46.480;6.834;2023-03-25T12:38:14;93700.63;;;21.10;34.45
48035;BME280;33812;46.480;6.834;2023-03-25T12:42:29;93694.34;;;21.10;34.15
48035;BME280;33812;46.480;6.834;2023-03-25T12:46:47;93702.28;;;21.08;34.10
48035;BME280;33812;46.480;6.834;2023-03-25T12:50:59;93691.22;;;21.08;33.72
48035;BME280;33812;46.480;6.834;2023-03-25T12:55:29;93694.66;;;21.12;34.18
48035;BME280;33812;46.480;6.834;2023-03-25T13:04:24;93660.97;;;21.17;33.99
48035;BME280;33812;46.480;6.834;2023-03-25T13:08:33;93678.31;;;21.18;34.12
48035;BME280;33812;46.480;6.834;2023-03-25T13:12:38;93679.09;;;21.18;34.26
48035;BME280;33812;46.480;6.834;2023-03-25T13:16:42;93672.34;;;21.19;34.00
48035;BME280;33812;46.480;6.834;2023-03-25T13:20:50;93680.63;;;21.19;34.14
48035;BME280;33812;46.480;6.834;2023-03-25T13:24:59;93668.72;;;21.22;34.31
48035;BME280;33812;46.480;6.834;2023-03-25T13:29:03;93667.81;;;21.25;34.42
48035;BME280;33812;46.480;6.834;2023-03-25T13:33:10;93669.81;;;21.25;34.43
48035;BME280;33812;46.480;6.834;2023-03-25T13:37:19;93663.06;;;21.26;34.38
48035;BME280;33812;46.480;6.834;2023-03-25T13:41:27;93655.19;;;21.24;34.23
48035;BME280;33812;46.480;6.834;2023-03-25T13:45:40;93657.97;;;21.24;34.17
48035;BME280;33812;46.480;6.834;2023-03-25T13:49:47;93661.97;;;21.23;34.26
48035;BME280;33812;46.480;6.834;2023-03-25T13:53:55;93671.78;;;21.24;34.22
48035;BME280;33812;46.480;6.834;2023-03-25T13:58:29;93661.19;;;21.23;34.14
48035;BME280;33812;46.480;6.834;2023-03-25T14:02:45;93652.13;;;21.22;33.98
48035;BME280;33812;46.480;6.834;2023-03-25T14:11:41;93653.31;;;21.21;34.00
48035;BME280;33812;46.480;6.834;2023-03-25T14:15:52;93660.72;;;21.24;33.95
48035;BME280;33812;46.480;6.834;2023-03-25T14:19:57;93653.31;;;21.21;34.24
48035;BME280;33812;46.480;6.834;2023-03-25T14:24:06;93664.72;;;21.23;34.45
48035;BME280;33812;46.480;6.834;2023-03-25T14:28:16;93655.19;;;21.24;34.50
48035;BME280;33812;46.480;6.834;2023-03-25T14:32:33;93654.56;;;21.20;34.15
48035;BME280;33812;46.480;6.834;2023-03-25T14:41:12;93655.00;;;21.19;34.46
48035;BME280;33812;46.480;6.834;2023-03-25T14:50:01;93665.03;;;21.12;34.39
48035;BME280;33812;46.480;6.834;2023-03-25T14:54:15;93664.94;;;21.16;34.10
48035;BME280;33812;46.480;6.834;2023-03-25T14:58:21;93672.03;;;21.17;34.11
48035;BME280;33812;46.480;6.834;2023-03-25T15:02:26;93672.34;;;21.19;35.23
48035;BME280;33812;46.480;6.834;2023-03-25T15:06:32;93669.56;;;21.19;35.02
48035;BME280;33812;46.480;6.834;2023-03-25T15:10:38;93658.84;;;21.21;35.56
48035;BME280;33812;46.480;6.834;2023-03-25T15:14:42;93667.94;;;21.22;35.98
48035;BME280;33812;46.480;6.834;2023-03-25T15:19:02;93664.72;;;21.23;36.43
48035;BME280;33812;46.480;6.834;2023-03-25T15:23:28;93661.06;;;21.26;36.04
48035;BME280;33812;46.480;6.834;2023-03-25T15:27:55;93652.00;;;21.26;36.43
48035;BME280;33812;46.480;6.834;2023-03-25T15:32:11;93646.16;;;21.24;35.99
48035;BME280;33812;46.480;6.834;2023-03-25T15:36:33;93648.13;;;21.23;36.24
48035;BME280;33812;46.480;6.834;2023-03-25T15:40:54;93643.06;;;21.22;36.10
48035;BME280;33812;46.480;6.834;2023-03-25T15:45:10;93644.94;;;21.25;37.32
48035;BME280;33812;46.480;6.834;2023-03-25T15:49:37;93649.22;;;21.26;37.30
48035;BME280;33812;46.480;6.834;2023-03-25T15:53:55;93642.50;;;21.27;38.28
48035;BME280;33812;46.480;6.834;2023-03-25T15:58:05;93633.44;;;21.26;39.93
48035;BME280;33812;46.480;6.834;2023-03-25T16:02:16;93631.00;;;21.29;39.65
48035;BME280;33812;46.480;6.834;2023-03-25T16:06:23;93632.09;;;21.31;39.47
48035;BME280;33812;46.480;6.834;2023-03-25T16:10:27;93621.03;;;21.31;39.25
48035;BME280;33812;46.480;6.834;2023-03-25T16:14:33;93627.00;;;21.30;39.00
48035;BME280;33812;46.480;6.834;2023-03-25T16:18:34;93619.94;;;21.29;38.81
48035;BME280;33812;46.480;6.834;2023-03-25T16:22:40;93612.44;;;21.29;39.04
48035;BME280;33812;46.480;6.834;2023-03-25T16:26:46;93604.03;;;21.33;40.29
48035;BME280;33812;46.480;6.834;2023-03-25T16:30:52;93603.25;;;21.32;40.34
48035;BME280;33812;46.480;6.834;2023-03-25T16:34:56;93604.78;;;21.33;40.71
48035;BME280;33812;46.480;6.834;2023-03-25T16:38:58;93604.78;;;21.33;40.82
48035;BME280;33812;46.480;6.834;2023-03-25T16:43:03;93591.84;;;21.30;40.67
48035;BME280;33812;46.480;6.834;2023-03-25T16:47:10;93576.06;;;21.31;40.80
48035;BME280;33812;46.480;6.834;2023-03-25T16:51:14;93582.22;;;21.35;40.66
48035;BME280;33812;46.480;6.834;2023-03-25T16:55:30;93577.94;;;21.34;40.19
48035;BME280;33812;46.480;6.834;2023-03-25T16:59:33;93581.47;;;21.34;40.48
48035;BME280;33812;46.480;6.834;2023-03-25T17:03:43;93583.69;;;21.40;40.45
48035;BME280;33812;46.480;6.834;2023-03-25T17:07:47;93581.03;;;21.36;40.36
48035;BME280;33812;46.480;6.834;2023-03-25T17:11:53;93562.56;;;21.33;40.14
48035;BME280;33812;46.480;6.834;2023-03-25T17:15:57;93559.69;;;21.36;39.96
48035;BME280;33812;46.480;6.834;2023-03-25T17:20:03;93562.13;;;21.34;40.04
48035;BME280;33812;46.480;6.834;2023-03-25T17:24:20;93564.09;;;21.34;39.96
48035;BME280;33812;46.480;6.834;2023-03-25T17:28:36;93566.41;;;21.35;40.47
48035;BME280;33812;46.480;6.834;2023-03-25T17:32:40;93549.63;;;21.30;40.18
48035;BME280;33812;46.480;6.834;2023-03-25T17:36:46;93560.56;;;21.33;40.42
48035;BME280;33812;46.480;6.834;2023-03-25T17:40:57;93558.56;;;21.34;41.16
48035;BME280;33812;46.480;6.834;2023-03-25T17:44:59;93560.44;;;21.37;41.44
48035;BME280;33812;46.480;6.834;2023-03-25T17:49:12;93551.41;;;21.36;41.38
48035;BME280;33812;46.480;6.834;2023-03-25T17:53:16;93547.84;;;21.36;41.06
48035;BME280;33812;46.480;6.834;2023-03-25T17:57:18;93544.63;;;21.37;42.09
48035;BME280;33812;46.480;6.834;2023-03-25T18:01:20;93550.63;;;21.36;42.66
48035;BME280;33812;46.480;6.834;2023-03-25T18:05:24;93545.09;;;21.36;42.84
48035;BME280;33812;46.480;6.834;2023-03-25T18:09:27;93545.88;;;21.36;42.94
48035;BME280;33812;46.480;6.834;2023-03-25T18:13:30;93548.19;;;21.38;42.52
48035;BME280;33812;46.480;6.834;2023-03-25T18:17:32;93546.97;;;21.39;42.99
48035;BME280;33812;46.480;6.834;2023-03-25T18:21:34;93555.69;;;21.37;42.83
48035;BME280;33812;46.480;6.834;2023-03-25T18:25:37;93573.38;;;21.40;42.92
48035;BME280;33812;46.480;6.834;2023-03-25T18:29:39;93579.03;;;21.10;33.78
48035;BME280;33812;46.480;6.834;2023-03-25T18:33:43;93581.78;;;21.10;39.77
48035;BME280;33812;46.480;6.834;2023-03-25T18:37:46;93562.13;;;21.21;39.71
48035;BME280;33812;46.480;6.834;2023-03-25T18:41:50;93556.03;;;21.26;39.95
48035;BME280;33812;46.480;6.834;2023-03-25T18:45:52;93555.59;;;21.28;39.94
48035;BME280;33812;46.480;6.834;2023-03-25T18:49:54;93552.72;;;21.32;39.85
48035;BME280;33812;46.480;6.834;2023-03-25T18:53:56;93553.94;;;21.31;40.55
48035;BME280;33812;46.480;6.834;2023-03-25T18:58:00;93558.25;;;21.32;40.36
48035;BME280;33812;46.480;6.834;2023-03-25T19:02:03;93563.78;;;21.32;40.78
48035;BME280;33812;46.480;6.834;2023-03-25T19:06:07;93566.53;;;21.32;40.93
48035;BME280;33812;46.480;6.834;2023-03-25T19:10:14;93576.06;;;21.31;41.01
48035;BME280;33812;46.480;6.834;2023-03-25T19:14:17;93572.41;;;21.34;41.05
48035;BME280;33812;46.480;6.834;2023-03-25T19:18:22;93590.97;;;21.33;40.93
48035;BME280;33812;46.480;6.834;2023-03-25T19:22:25;93580.69;;;21.34;41.03
48035;BME280;33812;46.480;6.834;2023-03-25T19:26:28;93579.16;;;21.33;41.10
48035;BME280;33812;46.480;6.834;2023-03-25T19:30:32;93588.97;;;21.34;41.04
48035;BME280;33812;46.480;6.834;2023-03-25T19:34:34;93590.22;;;21.33;40.95
48035;BME280;33812;46.480;6.834;2023-03-25T19:38:36;93581.47;;;21.34;41.02
48035;BME280;33812;46.480;6.834;2023-03-25T19:42:38;93589.75;;;21.34;40.97
48035;BME280;33812;46.480;6.834;2023-03-25T19:46:41;93584.69;;;21.33;40.87
48035;BME280;33812;46.480;6.834;2023-03-25T19:50:43;93587.44;;;21.33;40.93
48035;BME280;33812;46.480;6.834;2023-03-25T19:54:45;93582.22;;;21.35;40.81
48035;BME280;33812;46.480;6.834;2023-03-25T19:58:48;93571.63;;;21.33;40.80
48035;BME280;33812;46.480;6.834;2023-03-25T20:02:53;93570.88;;;21.33;40.82
48035;BME280;33812;46.480;6.834;2023-03-25T20:07:04;93557.78;;;21.33;40.68
48035;BME280;33812;46.480;6.834;2023-03-25T20:11:10;93558.56;;;21.34;40.72
48035;BME280;33812;46.480;6.834;2023-03-25T20:15:22;93549.50;;;21.33;40.82
48035;BME280;33812;46.480;6.834;2023-03-25T20:19:27;93548.31;;;21.34;40.60
48035;BME280;33812;46.480;6.834;2023-03-25T20:23:29;93546.28;;;21.35;40.62
48035;BME280;33812;46.480;6.834;2023-03-25T20:27:32;93538.00;;;21.35;40.56
48035;BME280;33812;46.480;6.834;2023-03-25T20:31:34;93547.06;;;21.35;40.36
48035;BME280;33812;46.480;6.834;2023-03-25T20:35:37;93532.47;;;21.35;40.42
48035;BME280;33812;46.480;6.834;2023-03-25T20:39:39;93521.09;;;21.33;40.52
48035;BME280;33812;46.480;6.834;2023-03-25T20:43:42;93519.09;;;21.33;40.38
48035;BME280;33812;46.480;6.834;2023-03-25T20:47:44;93521.84;;;21.33;40.14
48035;BME280;33812;46.480;6.834;2023-03-25T20:51:48;93509.28;;;21.32;40.73
48035;BME280;33812;46.480;6.834;2023-03-25T20:55:50;93511.13;;;21.35;40.46
48035;BME280;33812;46.480;6.834;2023-03-25T20:59:58;93497.31;;;21.35;40.63
48035;BME280;33812;46.480;6.834;2023-03-25T21:04:00;93474.41;;;21.35;40.48
48035;BME280;33812;46.480;6.834;2023-03-25T21:08:05;93481.50;;;21.36;40.09
48035;BME280;33812;46.480;6.834;2023-03-25T21:12:07;93473.66;;;21.34;39.86
48035;BME280;33812;46.480;6.834;2023-03-25T21:16:09;93466.13;;;21.35;39.89
48035;BME280;33812;46.480;6.834;2023-03-25T21:20:12;93452.31;;;21.35;39.97
48035;BME280;33812;46.480;6.834;2023-03-25T21:24:16;93458.63;;;21.35;39.83
48035;BME280;33812;46.480;6.834;2023-03-25T21:28:20;93466.91;;;21.35;39.85
48035;BME280;33812;46.480;6.834;2023-03-25T21:32:22;93455.06;;;21.35;39.31
48035;BME280;33812;46.480;6.834;2023-03-25T21:36:27;93464.13;;;21.35;39.24
48035;BME280;33812;46.480;6.834;2023-03-25T21:40:33;93461.81;;;21.34;39.34
48035;BME280;33812;46.480;6.834;2023-03-25T21:44:36;93478.75;;;21.36;39.30
48035;BME280;33812;46.480;6.834;2023-03-25T21:48:38;93471.97;;;21.37;39.90
48035;BME280;33812;46.480;6.834;2023-03-25T21:52:44;93468.03;;;21.38;41.05
48035;BME280;33812;46.480;6.834;2023-03-25T21:56:50;93462.94;;;21.36;41.65
48035;BME280;33812;46.480;6.834;2023-03-25T22:01:00;93454.31;;;21.34;42.04
48035;BME280;33812;46.480;6.834;2023-03-25T22:05:03;93444.78;;;21.35;42.41
48035;BME280;33812;46.480;6.834;2023-03-25T22:09:07;93447.88;;;21.37;42.63